Time;durP1;ratioP1;P1;durP2;ratioP2;P2;SDS_P1;SDS_P2;PMS_P1;PMS_P2;Temp;Humidity;BMP_temperature;BMP_pressure;BME280_temperature;BME280_humidity;BME280_pressure;Samples;Min_cycle;Max_cycle;Signal;HPM_P1;HPM_P2
2023/06/14 00:00:21;;;;;;;72.23;7.63;;;23.00;1.00;;;;;;5056584;28;20427;-87
2023/06/14 00:02:47;;;;;;;73.70;7.57;;;23.00;1.00;;;;;;5056667;28;20191;-87
2023/06/14 00:05:14;;;;;;;72.70;7.40;;;23.00;1.00;;;;;;5056917;28;20827;-87
2023/06/14 00:07:43;;;;;;;73.37;7.60;;;22.90;1.00;;;;;;5055650;28;20548;-87
2023/06/14 00:10:14;;;;;;;72.20;7.67;;;22.90;1.00;;;;;;5056609;28;20407;-86
2023/06/14 00:12:39;;;;;;;72.70;8.40;;;22.90;1.00;;;;;;5056988;28;20403;-86
2023/06/14 00:15:06;;;;;;;77.80;7.70;;;22.80;1.00;;;;;;5056505;28;20401;-87
2023/06/14 00:17:31;;;;;;;73.87;8.27;;;22.80;1.00;;;;;;5056241;28;20197;-86
2023/06/14 00:19:58;;;;;;;72.40;8.10;;;22.80;1.00;;;;;;5055357;28;20807;-87
2023/06/14 00:22:24;;;;;;;74.27;8.33;;;22.80;1.00;;;;;;5056170;28;20181;-87
2023/06/14 00:24:51;;;;;;;74.07;8.53;;;22.70;1.00;;;;;;5054595;28;20511;-86
2023/06/14 00:27:16;;;;;;;72.47;8.00;;;22.70;1.00;;;;;;5054841;28;20462;-86
2023/06/14 00:29:45;;;;;;;72.60;7.93;;;22.70;1.00;;;;;;5056119;28;20482;-86
2023/06/14 00:32:11;;;;;;;73.10;8.50;;;22.60;1.00;;;;;;5056236;28;20252;-87
2023/06/14 00:34:36;;;;;;;73.87;8.17;;;22.60;1.00;;;;;;5056738;28;20487;-87
2023/06/14 00:37:02;;;;;;;74.77;9.47;;;22.50;1.00;;;;;;5055969;28;20250;-86
2023/06/14 00:39:28;;;;;;;76.20;8.20;;;22.40;1.00;;;;;;5312406;22;20200;-86
2023/06/14 00:44:21;;;;;;;77.10;8.80;;;22.30;1.00;;;;;;5034405;28;20206;-86
2023/06/14 00:46:47;;;;;;;75.93;8.90;;;22.30;1.00;;;;;;5035474;28;20427;-87
2023/06/14 00:49:17;;;;;;;73.10;8.40;;;22.30;1.00;;;;;;5034857;28;20522;-86
2023/06/14 00:51:43;;;;;;;72.97;7.70;;;22.30;1.00;;;;;;5036831;28;20868;-86
2023/06/14 00:54:09;;;;;;;72.70;7.80;;;22.30;1.00;;;;;;5036236;28;20399;-87
2023/06/14 00:56:39;;;;;;;74.90;8.37;;;22.20;1.00;;;;;;5035625;28;20541;-86
2023/06/14 00:59:05;;;;;;;72.60;7.70;;;22.20;1.00;;;;;;5035760;28;20754;-86
2023/06/14 01:01:34;;;;;;;74.30;8.20;;;22.20;1.00;;;;;;5017784;28;20848;-86
2023/06/14 01:04:04;;;;;;;73.17;8.37;;;22.10;1.00;;;;;;5035679;28;20406;-86
2023/06/14 01:06:51;;;;;;;73.90;8.30;;;22.20;1.00;;;;;;5035144;28;20421;-86
2023/06/14 01:09:22;;;;;;;72.30;7.40;;;22.10;1.00;;;;;;5037754;28;20396;-86
2023/06/14 01:11:58;;;;;;;72.80;7.67;;;22.00;1.00;;;;;;5035193;28;20391;-86
2023/06/14 01:14:25;;;;;;;73.03;8.43;;;21.90;1.00;;;;;;5035316;28;20487;-87
2023/06/14 01:16:52;;;;;;;73.70;8.17;;;21.90;1.00;;;;;;5034858;28;20451;-86
2023/06/14 01:19:22;;;;;;;75.97;8.33;;;21.90;1.00;;;;;;5018041;28;20420;-87
2023/06/14 01:21:50;;;;;;;72.37;8.33;;;21.80;1.00;;;;;;5035070;28;20442;-86
2023/06/14 01:24:19;;;;;;;81.27;8.30;;;21.70;1.00;;;;;;5017069;28;20461;-86
2023/06/14 01:26:46;;;;;;;72.70;7.87;;;21.70;1.00;;;;;;5035426;28;20420;-86
2023/06/14 01:29:17;;;;;;;74.27;8.20;;;21.60;1.00;;;;;;5017076;28;20779;-86
2023/06/14 01:31:43;;;;;;;74.23;9.00;;;21.50;1.00;;;;;;5035091;28;20392;-87
2023/06/14 01:34:09;;;;;;;72.60;8.57;;;21.50;1.00;;;;;;5034898;28;20404;-87
2023/06/14 01:36:40;;;;;;;74.87;8.43;;;21.50;1.00;;;;;;5034905;28;20581;-86
2023/06/14 01:39:06;;;;;;;73.27;9.10;;;21.50;1.00;;;;;;5035492;28;20384;-86
2023/06/14 01:41:33;;;;;;;73.20;8.43;;;21.50;1.00;;;;;;5035325;28;20760;-86
2023/06/14 01:43:59;;;;;;;73.63;9.77;;;21.50;1.00;;;;;;5034744;28;20408;-86
2023/06/14 01:46:25;;;;;;;76.20;9.17;;;21.40;1.00;;;;;;5035015;28;20440;-86
2023/06/14 01:48:51;;;;;;;75.13;10.13;;;21.30;1.00;;;;;;5034624;28;20462;-86
2023/06/14 01:51:17;;;;;;;74.73;9.23;;;21.30;1.00;;;;;;5034107;28;20177;-86
2023/06/14 01:53:42;;;;;;;73.00;9.57;;;21.20;1.00;;;;;;5034166;28;20768;-86
2023/06/14 01:56:08;;;;;;;72.27;8.67;;;21.20;1.00;;;;;;5016710;28;20200;-86
2023/06/14 01:58:35;;;;;;;74.37;9.87;;;21.20;1.00;;;;;;5034272;28;20601;-87
2023/06/14 02:01:00;;;;;;;74.83;10.30;;;21.10;1.00;;;;;;5034373;28;20158;-87
2023/06/14 02:03:27;;;;;;;73.47;9.97;;;21.10;1.00;;;;;;5034388;28;20470;-87
2023/06/14 02:05:54;;;;;;;72.90;11.47;;;21.00;1.00;;;;;;5034134;28;20505;-86
2023/06/14 02:08:19;;;;;;;73.87;11.73;;;20.90;1.00;;;;;;5034374;28;20424;-86
2023/06/14 02:10:48;;;;;;;73.80;12.60;;;20.80;1.00;;;;;;5016581;28;20423;-86
2023/06/14 02:13:13;;;;;;;75.07;13.00;;;20.90;1.00;;;;;;5034117;28;20172;-86
2023/06/14 02:15:40;;;;;;;77.27;12.47;;;20.80;1.00;;;;;;5034032;28;20896;-87
2023/06/14 02:18:05;;;;;;;77.50;13.73;;;20.80;1.00;;;;;;5016898;28;20254;-86
2023/06/14 02:20:31;;;;;;;73.70;12.33;;;20.80;1.00;;;;;;5033937;28;20858;-86
2023/06/14 02:22:57;;;;;;;74.13;14.47;;;20.70;1.00;;;;;;5034016;28;20162;-86
2023/06/14 02:25:27;;;;;;;76.30;14.77;;;20.70;1.00;;;;;;5033978;28;20240;-86
2023/06/14 02:27:54;;;;;;;74.07;14.50;;;20.60;1.00;;;;;;5016016;28;20428;-87
2023/06/14 02:30:20;;;;;;;76.20;15.53;;;20.70;1.00;;;;;;5016228;28;20414;-87
2023/06/14 02:32:48;;;;;;;77.50;16.63;;;20.70;1.00;;;;;;5033936;28;20776;-86
2023/06/14 02:35:14;;;;;;;75.53;14.90;;;20.60;1.00;;;;;;5034178;28;20751;-86
2023/06/14 02:37:40;;;;;;;75.20;15.60;;;20.50;1.00;;;;;;5034636;28;20474;-87
2023/06/14 02:40:08;;;;;;;77.80;15.80;;;20.50;1.00;;;;;;5035190;28;20432;-87
2023/06/14 02:42:34;;;;;;;76.50;14.37;;;20.50;1.00;;;;;;5033876;28;20478;-87
2023/06/14 02:45:02;;;;;;;75.17;14.33;;;20.40;1.00;;;;;;5034355;28;20807;-86
2023/06/14 02:47:27;;;;;;;75.70;15.67;;;20.40;1.00;;;;;;5033863;28;20185;-86
2023/06/14 02:49:56;;;;;;;77.30;17.10;;;20.40;1.00;;;;;;5034284;28;20493;-86
2023/06/14 02:52:22;;;;;;;76.00;15.37;;;20.30;1.00;;;;;;5033926;28;20176;-87
2023/06/14 02:54:47;;;;;;;75.47;15.50;;;20.30;1.00;;;;;;5016146;28;20411;-86
2023/06/14 02:57:13;;;;;;;72.97;13.67;;;20.30;1.00;;;;;;5033647;28;20209;-86
2023/06/14 02:59:39;;;;;;;76.73;14.87;;;20.20;1.00;;;;;;5016131;28;20170;-86
2023/06/14 03:02:05;;;;;;;75.80;15.30;;;20.20;1.00;;;;;;5034293;28;20230;-86
2023/06/14 03:04:34;;;;;;;74.70;14.07;;;20.20;1.00;;;;;;5033773;28;20168;-86
2023/06/14 03:07:02;;;;;;;73.73;12.03;;;20.20;1.00;;;;;;5033734;28;20490;-86
2023/06/14 03:09:28;;;;;;;74.40;13.23;;;20.10;1.00;;;;;;5034032;28;20820;-86
2023/06/14 03:11:54;;;;;;;75.10;13.00;;;20.10;1.00;;;;;;5033678;28;20404;-86
2023/06/14 03:14:21;;;;;;;77.33;13.40;;;20.00;1.00;;;;;;5037558;28;20401;-86
2023/06/14 03:16:47;;;;;;;73.07;12.50;;;20.00;1.00;;;;;;5037599;28;20193;-86
2023/06/14 03:19:12;;;;;;;74.40;12.27;;;19.90;1.00;;;;;;5020087;28;20496;-86
2023/06/14 03:21:43;;;;;;;73.07;12.20;;;19.90;1.00;;;;;;5020092;28;20168;-86
2023/06/14 03:24:09;;;;;;;73.27;11.40;;;19.90;1.00;;;;;;5020109;28;20162;-86
2023/06/14 03:26:36;;;;;;;72.93;12.17;;;19.90;1.00;;;;;;5037497;28;20466;-86
2023/06/14 03:29:02;;;;;;;73.60;11.87;;;19.80;1.00;;;;;;5037579;28;20413;-86
2023/06/14 03:31:32;;;;;;;75.20;12.70;;;19.80;1.00;;;;;;5037366;28;20888;-87
2023/06/14 03:34:02;;;;;;;75.10;12.23;;;19.70;1.00;;;;;;5037992;28;20604;-86
2023/06/14 03:36:27;;;;;;;73.50;11.50;;;19.70;1.00;;;;;;5037074;28;20444;-86
2023/06/14 03:38:54;;;;;;;75.57;11.90;;;19.60;1.00;;;;;;5019495;28;20427;-86
2023/06/14 03:41:20;;;;;;;73.13;11.47;;;19.70;1.00;;;;;;5037396;28;20249;-87
2023/06/14 03:43:46;;;;;;;76.30;11.10;;;19.70;1.00;;;;;;5019328;28;20469;-86
2023/06/14 03:46:11;;;;;;;72.90;11.50;;;19.70;1.00;;;;;;5038058;28;20225;-86
2023/06/14 03:48:38;;;;;;;76.90;11.50;;;19.70;1.00;;;;;;5037073;28;20185;-86
2023/06/14 03:51:04;;;;;;;73.53;11.63;;;19.70;1.00;;;;;;5037443;28;20701;-86
2023/06/14 03:53:30;;;;;;;74.67;11.87;;;19.70;1.00;;;;;;5036773;28;20912;-86
2023/06/14 03:55:57;;;;;;;72.50;10.70;;;19.70;1.00;;;;;;5018954;28;20503;-86
2023/06/14 04:00:56;;;;;;;74.20;10.80;;;19.70;1.00;;;;;;5073433;28;20465;-81
2023/06/14 04:03:23;;;;;;;74.00;12.00;;;19.70;1.00;;;;;;5075701;28;20457;-81
2023/06/14 04:05:49;;;;;;;73.17;11.10;;;19.70;1.00;;;;;;5074896;28;20162;-81
2023/06/14 04:08:15;;;;;;;74.57;11.20;;;19.70;1.00;;;;;;5058435;28;20428;-81
2023/06/14 04:10:41;;;;;;;76.70;11.03;;;19.70;1.00;;;;;;5058159;28;20447;-81
2023/06/14 04:13:07;;;;;;;72.07;10.10;;;19.70;1.00;;;;;;5075678;28;20431;-81
2023/06/14 04:15:33;;;;;;;72.47;9.67;;;19.60;1.00;;;;;;5075768;28;20181;-81
2023/06/14 04:18:00;;;;;;;79.13;10.00;;;19.60;1.00;;;;;;5075856;28;20207;-81
2023/06/14 04:20:26;;;;;;;72.10;9.40;;;19.60;1.00;;;;;;5057829;28;20409;-81
2023/06/14 04:22:52;;;;;;;72.77;9.33;;;19.60;1.00;;;;;;5075574;28;20421;-81
2023/06/14 04:25:18;;;;;;;72.70;8.80;;;19.70;1.00;;;;;;5075393;28;20392;-80
2023/06/14 04:27:44;;;;;;;73.07;9.20;;;19.70;1.00;;;;;;5075594;28;20419;-81
2023/06/14 04:30:10;;;;;;;72.10;8.80;;;19.70;1.00;;;;;;5075482;28;20498;-81
2023/06/14 04:32:38;;;;;;;71.97;9.50;;;19.70;1.00;;;;;;5075371;28;20173;-80
2023/06/14 04:35:08;;;;;;;72.90;9.07;;;19.90;1.00;;;;;;5075375;28;20415;-80
2023/06/14 04:37:34;;;;;;;74.17;10.87;;;20.20;1.00;;;;;;5075802;28;20457;-81
2023/06/14 04:40:00;;;;;;;73.27;9.40;;;20.50;1.00;;;;;;5075563;28;20441;-81
2023/06/14 04:42:30;;;;;;;74.87;10.70;;;20.80;1.00;;;;;;5057183;28;20166;-81
2023/06/14 04:44:57;;;;;;;76.67;10.37;;;21.00;1.00;;;;;;5075306;28;20464;-81
2023/06/14 04:47:29;;;;;;;75.97;9.90;;;21.20;1.00;;;;;;5057450;28;20442;-81
2023/06/14 04:49:56;;;;;;;72.87;8.80;;;21.40;1.00;;;;;;5056898;28;20431;-81
2023/06/14 04:52:22;;;;;;;73.93;11.53;;;21.50;1.00;;;;;;5057535;28;20407;-81
2023/06/14 04:54:48;;;;;;;74.50;11.80;;;21.70;1.00;;;;;;5074689;28;20430;-81
2023/06/14 04:57:16;;;;;;;75.27;9.60;;;21.70;1.00;;;;;;5075009;28;20450;-81
2023/06/14 04:59:43;;;;;;;72.30;9.70;;;21.70;1.00;;;;;;5074402;28;20180;-81
2023/06/14 05:02:10;;;;;;;73.70;10.17;;;22.00;1.00;;;;;;5074423;28;20410;-81
2023/06/14 05:04:39;;;;;;;75.27;7.57;;;22.20;1.00;;;;;;5074597;28;20466;-81
2023/06/14 05:07:06;;;;;;;71.40;7.50;;;22.40;1.00;;;;;;5074275;28;20419;-81
2023/06/14 05:09:33;;;;;;;75.07;7.27;;;22.30;1.00;;;;;;5074668;28;20418;-80
2023/06/14 05:12:00;;;;;;;74.63;6.80;;;22.20;1.00;;;;;;5074063;28;20407;-81
2023/06/14 05:14:26;;;;;;;74.23;6.37;;;21.90;1.00;;;;;;5074141;28;20415;-81
2023/06/14 05:16:53;;;;;;;71.40;6.33;;;21.70;1.00;;;;;;5056390;28;20557;-82
2023/06/14 05:19:20;;;;;;;72.60;6.10;;;21.50;1.00;;;;;;5056857;28;20418;-81
2023/06/14 05:21:47;;;;;;;73.10;6.60;;;21.30;1.00;;;;;;5074992;28;20437;-81
2023/06/14 05:24:14;;;;;;;71.37;6.17;;;21.20;1.00;;;;;;5073348;28;20408;-81
2023/06/14 05:26:39;;;;;;;71.37;6.47;;;21.10;1.00;;;;;;5074177;28;20419;-81
2023/06/14 05:29:05;;;;;;;75.00;7.03;;;21.20;1.00;;;;;;5056519;28;20418;-81
2023/06/14 05:31:31;;;;;;;73.17;6.70;;;21.00;1.00;;;;;;5073010;28;20176;-81
2023/06/14 05:33:57;;;;;;;72.43;7.40;;;20.80;1.00;;;;;;5055035;28;20568;-81
2023/06/14 05:36:22;;;;;;;72.30;6.77;;;20.70;1.00;;;;;;5071872;28;20199;-81
2023/06/14 05:38:48;;;;;;;76.40;7.93;;;20.50;1.00;;;;;;5072667;28;20219;-81
2023/06/14 05:41:14;;;;;;;74.10;7.13;;;20.40;1.00;;;;;;5055019;28;20204;-81
2023/06/14 05:43:40;;;;;;;76.30;7.30;;;20.40;1.00;;;;;;5055167;28;20169;-81
2023/06/14 05:46:05;;;;;;;70.57;6.67;;;20.50;1.00;;;;;;5055666;28;20462;-81
2023/06/14 05:48:31;;;;;;;75.93;7.20;;;20.60;1.00;;;;;;5072102;28;20183;-81
2023/06/14 05:50:58;;;;;;;71.50;6.20;;;20.50;1.00;;;;;;5073260;28;20544;-81
2023/06/14 05:53:23;;;;;;;73.20;6.83;;;20.60;1.00;;;;;;5038275;28;20437;-81
2023/06/14 05:55:53;;;;;;;71.07;6.00;;;20.60;1.00;;;;;;5055265;28;20417;-81
2023/06/14 05:58:18;;;;;;;72.80;8.00;;;20.50;1.00;;;;;;5056024;28;20566;-80
2023/06/14 06:00:45;;;;;;;72.00;6.97;;;20.50;1.00;;;;;;5073914;28;20422;-81
2023/06/14 06:03:12;;;;;;;71.97;6.57;;;20.50;1.00;;;;;;5073842;28;20176;-81
2023/06/14 06:05:39;;;;;;;73.13;7.30;;;20.40;1.00;;;;;;5073664;28;20406;-81
2023/06/14 06:08:05;;;;;;;70.60;5.57;;;20.40;1.00;;;;;;5073450;28;20427;-80
2023/06/14 06:10:30;;;;;;;71.27;5.90;;;20.40;1.00;;;;;;5073522;28;20405;-80
2023/06/14 06:12:56;;;;;;;70.93;5.93;;;20.50;1.00;;;;;;5073968;28;20398;-80
2023/06/14 06:15:22;;;;;;;71.00;5.37;;;20.50;1.00;;;;;;5056097;28;20207;-81
2023/06/14 06:17:47;;;;;;;72.50;5.93;;;20.40;1.00;;;;;;5073185;28;20207;-81
2023/06/14 06:20:13;;;;;;;72.97;7.17;;;20.40;1.00;;;;;;5073561;28;20170;-80
2023/06/14 06:22:39;;;;;;;74.37;5.87;;;20.50;1.00;;;;;;5055043;28;20182;-81
2023/06/14 06:25:06;;;;;;;72.77;6.33;;;20.40;1.00;;;;;;5069579;28;20154;-81
2023/06/14 06:27:32;;;;;;;72.10;5.30;;;20.40;1.00;;;;;;5048702;28;20441;-81
2023/06/14 06:29:57;;;;;;;71.83;6.00;;;20.30;1.00;;;;;;5049398;28;20417;-81
2023/06/14 06:32:23;;;;;;;69.40;5.40;;;20.50;1.00;;;;;;5067221;28;20490;-81
2023/06/14 06:34:50;;;;;;;71.07;5.80;;;20.30;1.00;;;;;;5067200;28;20175;-81
2023/06/14 06:37:15;;;;;;;71.60;6.60;;;20.40;1.00;;;;;;5049739;28;20201;-81
2023/06/14 06:39:41;;;;;;;69.93;5.70;;;20.30;1.00;;;;;;5066140;28;20818;-80
2023/06/14 06:42:07;;;;;;;74.77;8.47;;;20.10;1.00;;;;;;5055344;28;20419;-79
2023/06/14 06:44:33;;;;;;;72.47;7.30;;;20.20;1.00;;;;;;5072474;28;20161;-80
2023/06/14 06:46:59;;;;;;;69.40;5.70;;;20.40;1.00;;;;;;5073121;28;20167;-80
2023/06/14 06:49:24;;;;;;;71.03;5.90;;;20.60;1.00;;;;;;5075733;28;20436;-81
2023/06/14 06:52:05;;;;;;;72.53;6.90;;;20.60;1.00;;;;;;5072780;28;20432;-81
2023/06/14 06:54:31;;;;;;;72.50;7.70;;;20.70;1.00;;;;;;5071578;28;20188;-81
2023/06/14 06:56:57;;;;;;;72.10;9.13;;;20.70;1.00;;;;;;5069687;28;20476;-81
2023/06/14 06:59:23;;;;;;;70.57;5.90;;;20.80;1.00;;;;;;5070665;28;20431;-81
2023/06/14 07:01:48;;;;;;;70.43;7.30;;;20.90;1.00;;;;;;5070625;28;20161;-81
2023/06/14 07:04:15;;;;;;;72.20;6.60;;;20.90;1.00;;;;;;5070249;28;20487;-81
2023/06/14 07:06:42;;;;;;;73.27;6.30;;;21.00;1.00;;;;;;5070883;28;20185;-81
2023/06/14 07:09:12;;;;;;;70.03;5.70;;;21.00;1.00;;;;;;5069745;28;20434;-81
2023/06/14 07:11:39;;;;;;;75.30;5.47;;;21.10;1.00;;;;;;5070025;28;20455;-81
2023/06/14 07:14:04;;;;;;;73.53;6.17;;;21.20;1.00;;;;;;5052222;28;20478;-80
2023/06/14 07:16:30;;;;;;;70.80;5.07;;;21.20;1.00;;;;;;5051840;28;20453;-81
2023/06/14 07:18:56;;;;;;;71.20;5.03;;;21.20;1.00;;;;;;5070655;28;20243;-81
2023/06/14 07:21:22;;;;;;;75.03;6.03;;;21.20;1.00;;;;;;5068708;28;20167;-81
2023/06/14 07:23:47;;;;;;;71.13;5.07;;;21.30;1.00;;;;;;5069298;28;20240;-81
2023/06/14 07:26:13;;;;;;;71.97;5.77;;;21.30;1.00;;;;;;5052130;28;20657;-81
2023/06/14 07:28:39;;;;;;;70.90;5.97;;;21.30;1.00;;;;;;5071314;28;20180;-80
2023/06/14 07:31:05;;;;;;;70.37;5.10;;;21.40;1.00;;;;;;5070806;28;20195;-80
2023/06/14 07:33:30;;;;;;;73.13;5.37;;;21.40;1.00;;;;;;5054482;28;20500;-80
2023/06/14 07:35:57;;;;;;;71.30;5.60;;;21.30;1.00;;;;;;5075616;28;20651;-81
2023/06/14 07:38:22;;;;;;;80.30;5.60;;;21.40;1.00;;;;;;5075299;28;20168;-80
2023/06/14 07:40:48;;;;;;;71.03;5.10;;;21.50;1.00;;;;;;5075409;28;20395;-81
2023/06/14 07:43:14;;;;;;;70.90;5.17;;;21.50;1.00;;;;;;5075892;28;20184;-81
2023/06/14 07:45:40;;;;;;;70.43;4.80;;;21.50;1.00;;;;;;5057669;28;20165;-81
2023/06/14 07:48:05;;;;;;;70.37;4.70;;;21.50;1.00;;;;;;5057964;28;20969;-81
2023/06/14 07:50:32;;;;;;;68.80;5.07;;;21.50;1.00;;;;;;5073892;28;20195;-81
2023/06/14 07:52:58;;;;;;;70.93;4.93;;;21.60;1.00;;;;;;5068439;28;20168;-81
2023/06/14 07:55:25;;;;;;;70.87;5.17;;;21.70;1.00;;;;;;5068394;28;20407;-80
2023/06/14 07:57:50;;;;;;;70.60;4.57;;;21.70;1.00;;;;;;5064941;28;20203;-81
2023/06/14 08:00:18;;;;;;;70.97;4.80;;;21.80;1.00;;;;;;5050026;28;20529;-81
2023/06/14 08:02:44;;;;;;;70.57;5.60;;;21.80;1.00;;;;;;5068442;28;20165;-80
2023/06/14 08:05:11;;;;;;;69.43;4.10;;;21.80;1.00;;;;;;5050744;28;20410;-79
2023/06/14 08:07:37;;;;;;;68.67;4.40;;;21.90;1.00;;;;;;5068728;28;20423;-80
2023/06/14 08:10:04;;;;;;;71.20;4.53;;;21.80;1.00;;;;;;5069088;28;20427;-81
2023/06/14 08:12:29;;;;;;;70.70;4.77;;;21.80;1.00;;;;;;5050742;28;20411;-80
2023/06/14 08:14:55;;;;;;;69.00;4.07;;;21.80;1.00;;;;;;5066963;28;20415;-80
2023/06/14 08:17:21;;;;;;;69.93;4.60;;;21.80;1.00;;;;;;5067802;28;20691;-81
2023/06/14 08:19:46;;;;;;;69.00;4.43;;;21.70;1.00;;;;;;5069378;28;20161;-80
2023/06/14 08:22:12;;;;;;;72.67;4.80;;;21.90;1.00;;;;;;5068887;28;20172;-81
2023/06/14 08:24:40;;;;;;;72.63;5.10;;;22.00;1.00;;;;;;5050932;28;20305;-81
2023/06/14 08:27:06;;;;;;;70.17;6.83;;;22.10;1.00;;;;;;5050748;28;20200;-81
2023/06/14 08:29:32;;;;;;;68.50;4.30;;;22.10;1.00;;;;;;5069221;28;20438;-81
2023/06/14 08:31:57;;;;;;;69.37;4.73;;;22.10;1.00;;;;;;5069051;28;20411;-81
2023/06/14 08:34:23;;;;;;;68.80;4.47;;;22.20;1.00;;;;;;5068755;28;20236;-79
2023/06/14 08:36:50;;;;;;;68.90;4.00;;;22.30;1.00;;;;;;5069042;28;20204;-81
2023/06/14 08:39:16;;;;;;;69.90;3.80;;;22.40;1.00;;;;;;5051128;28;20173;-80
2023/06/14 08:41:46;;;;;;;71.03;3.80;;;22.40;1.00;;;;;;5068555;28;20395;-81
2023/06/14 08:44:12;;;;;;;69.40;3.90;;;22.50;1.00;;;;;;5068484;28;20384;-80
2023/06/14 08:46:39;;;;;;;68.57;3.40;;;22.50;1.00;;;;;;5067230;28;20427;-81
2023/06/14 08:49:06;;;;;;;69.27;3.37;;;22.60;1.00;;;;;;5069143;28;20337;-81
2023/06/14 08:51:36;;;;;;;69.63;3.10;;;22.60;1.00;;;;;;5049408;28;20498;-80
2023/06/14 08:54:03;;;;;;;68.30;3.03;;;22.60;1.00;;;;;;5049059;28;20407;-81
2023/06/14 08:56:33;;;;;;;68.50;3.13;;;22.70;1.00;;;;;;5050798;28;20450;-81
2023/06/14 08:59:06;;;;;;;68.63;3.23;;;22.70;1.00;;;;;;5074684;28;20412;-81
2023/06/14 09:01:36;;;;;;;69.20;3.07;;;22.80;1.00;;;;;;5072982;28;20411;-81
2023/06/14 09:04:02;;;;;;;69.53;4.13;;;22.90;1.00;;;;;;5074171;28;20434;-80
2023/06/14 09:06:28;;;;;;;69.30;4.50;;;22.90;1.00;;;;;;5073407;28;20411;-81
2023/06/14 09:08:57;;;;;;;69.33;3.17;;;22.90;1.00;;;;;;5072961;28;20506;-81
2023/06/14 09:11:23;;;;;;;69.73;3.33;;;22.80;1.00;;;;;;5073286;28;20407;-80
2023/06/14 09:13:49;;;;;;;67.90;3.00;;;22.90;1.00;;;;;;5073857;28;20403;-81
2023/06/14 09:16:16;;;;;;;69.77;3.50;;;23.10;1.00;;;;;;5073899;28;20454;-81
2023/06/14 09:18:47;;;;;;;69.70;3.20;;;23.20;1.00;;;;;;5073218;28;20411;-81
2023/06/14 09:21:15;;;;;;;69.30;3.00;;;23.40;1.00;;;;;;5073309;28;20387;-80
2023/06/14 09:23:45;;;;;;;71.90;3.40;;;23.40;1.00;;;;;;5074132;28;20426;-81
2023/06/14 09:26:16;;;;;;;69.53;3.67;;;23.40;1.00;;;;;;5073607;28;20391;-81
2023/06/14 09:28:48;;;;;;;69.07;3.07;;;23.50;1.00;;;;;;5073784;28;20423;-81
2023/06/14 09:31:16;;;;;;;69.67;3.10;;;23.60;1.00;;;;;;5072775;28;20400;-80
2023/06/14 09:33:50;;;;;;;68.70;3.10;;;23.70;1.00;;;;;;5073092;28;20395;-81
2023/06/14 09:36:22;;;;;;;69.97;3.20;;;23.80;1.00;;;;;;5073241;28;20506;-81
2023/06/14 09:39:08;;;;;;;69.30;3.60;;;24.00;1.00;;;;;;5067682;28;20759;-81
2023/06/14 09:41:39;;;;;;;69.93;3.70;;;24.20;1.00;;;;;;5065043;28;20387;-81
2023/06/14 09:44:07;;;;;;;69.13;3.57;;;24.30;1.00;;;;;;5067206;28;20395;-81
2023/06/14 09:46:34;;;;;;;69.37;3.97;;;24.50;1.00;;;;;;5050066;28;20428;-81
2023/06/14 09:49:01;;;;;;;69.27;3.60;;;24.60;1.00;;;;;;5049203;28;20422;-82
2023/06/14 09:51:30;;;;;;;69.27;3.70;;;24.60;1.00;;;;;;5048778;28;20490;-82
2023/06/14 09:54:00;;;;;;;69.87;4.30;;;24.60;1.00;;;;;;5049381;28;20441;-82
2023/06/14 09:56:30;;;;;;;69.87;4.00;;;25.00;1.00;;;;;;5066788;28;20435;-82
2023/06/14 09:58:58;;;;;;;70.25;4.45;;;25.10;1.00;;;;;;5230449;22;20532;-80
2023/06/14 10:01:29;;;;;;;69.87;4.37;;;25.10;1.00;;;;;;5069544;28;20478;-81
2023/06/14 10:04:07;;;;;;;69.17;3.90;;;25.30;1.00;;;;;;5087236;28;20412;-81
2023/06/14 10:06:37;;;;;;;68.70;3.50;;;25.20;1.00;;;;;;5068595;28;20411;-81
2023/06/14 10:09:05;;;;;;;71.87;3.93;;;25.20;1.00;;;;;;5066747;28;20428;-81
2023/06/14 10:11:31;;;;;;;69.77;3.37;;;25.30;1.00;;;;;;5069748;28;20423;-81
2023/06/14 10:13:58;;;;;;;72.27;3.57;;;25.40;1.00;;;;;;5087132;28;20439;-81
2023/06/14 10:16:32;;;;;;;69.00;3.37;;;25.60;1.00;;;;;;5086390;28;20453;-81
2023/06/14 10:19:00;;;;;;;69.07;2.83;;;25.70;1.00;;;;;;5069084;28;20409;-81
2023/06/14 10:21:37;;;;;;;69.87;3.70;;;26.00;1.00;;;;;;5085978;28;20403;-81
2023/06/14 10:24:06;;;;;;;69.30;3.60;;;26.30;1.00;;;;;;5087250;28;20381;-81
2023/06/14 10:26:32;;;;;;;69.67;2.90;;;26.50;1.00;;;;;;5069041;28;20410;-81
2023/06/14 10:29:08;;;;;;;73.60;3.50;;;26.70;1.00;;;;;;5086725;28;20403;-81
2023/06/14 10:31:45;;;;;;;69.67;2.83;;;26.80;1.00;;;;;;5086701;28;20171;-81
2023/06/14 10:34:12;;;;;;;71.37;3.10;;;26.90;1.00;;;;;;5089267;28;20458;-81
2023/06/14 10:36:42;;;;;;;69.50;2.80;;;26.90;1.00;;;;;;5093226;28;20463;-81
2023/06/14 10:39:15;;;;;;;68.87;2.90;;;26.80;1.00;;;;;;5092751;28;20387;-80
2023/06/14 10:41:41;;;;;;;68.90;2.87;;;27.00;1.00;;;;;;5092735;28;20394;-80
2023/06/14 10:44:13;;;;;;;69.93;3.13;;;27.20;1.00;;;;;;5090226;28;20402;-80
2023/06/14 10:46:40;;;;;;;69.80;3.00;;;27.30;1.00;;;;;;5068297;28;20435;-81
2023/06/14 10:49:06;;;;;;;69.43;2.73;;;27.10;1.00;;;;;;5067941;28;20438;-80
2023/06/14 10:51:46;;;;;;;68.87;2.90;;;27.40;1.00;;;;;;5067083;28;20983;-81
2023/06/14 10:54:14;;;;;;;69.03;3.10;;;27.70;1.00;;;;;;5068039;28;20398;-80
2023/06/14 10:56:48;;;;;;;73.20;3.67;;;27.60;1.00;;;;;;5084389;28;20457;-80
2023/06/14 10:59:14;;;;;;;69.60;2.50;;;27.80;1.00;;;;;;5085617;28;20451;-80
2023/06/14 11:02:06;;;;;;;69.30;3.37;;;27.60;1.00;;;;;;5085234;28;20394;-81
2023/06/14 11:04:47;;;;;;;69.37;2.73;;;27.70;1.00;;;;;;5054839;28;20441;-80
2023/06/14 11:07:51;;;;;;;71.97;2.90;;;27.70;1.00;;;;;;5068833;28;20456;-81
2023/06/14 11:10:39;;;;;;;69.20;3.10;;;27.80;1.00;;;;;;5086492;28;20379;-80
2023/06/14 11:13:08;;;;;;;69.37;3.00;;;27.70;1.00;;;;;;5067540;28;20823;-80
2023/06/14 11:15:36;;;;;;;70.47;2.90;;;26.80;1.00;;;;;;5085726;28;20832;-80
2023/06/14 11:18:07;;;;;;;71.07;3.10;;;26.70;1.00;;;;;;5086031;28;20984;-81
2023/06/14 11:20:35;;;;;;;69.17;2.90;;;26.50;1.00;;;;;;5068028;28;20412;-81
2023/06/14 11:23:01;;;;;;;70.37;3.00;;;27.00;1.00;;;;;;5086152;28;20398;-80
2023/06/14 11:25:28;;;;;;;71.20;3.37;;;27.30;1.00;;;;;;5089967;28;20403;-80
2023/06/14 11:27:54;;;;;;;68.50;2.63;;;27.70;1.00;;;;;;5090317;28;20402;-81
2023/06/14 11:30:20;;;;;;;69.10;2.50;;;27.60;1.00;;;;;;5091109;28;20398;-80
2023/06/14 11:32:50;;;;;;;69.50;3.10;;;27.80;1.00;;;;;;5090859;28;20406;-81
2023/06/14 11:35:17;;;;;;;69.50;2.70;;;28.20;1.00;;;;;;5075607;28;20168;-81
2023/06/14 11:37:44;;;;;;;68.80;3.10;;;28.40;1.00;;;;;;5076361;28;20462;-81
2023/06/14 11:40:11;;;;;;;68.77;3.30;;;28.20;1.00;;;;;;5077330;28;20413;-81
2023/06/14 11:42:38;;;;;;;69.03;3.20;;;27.80;1.00;;;;;;5094169;28;20402;-81
2023/06/14 11:45:07;;;;;;;68.47;2.93;;;28.00;1.00;;;;;;5089617;28;20398;-80
2023/06/14 11:47:37;;;;;;;68.53;3.07;;;28.10;1.00;;;;;;5071488;28;20498;-80
2023/06/14 11:50:05;;;;;;;68.90;2.53;;;28.00;1.00;;;;;;5072306;28;20817;-81
2023/06/14 11:52:31;;;;;;;69.60;3.53;;;27.50;1.00;;;;;;5072728;28;20417;-80
2023/06/14 11:54:58;;;;;;;69.77;2.40;;;27.70;1.00;;;;;;5088780;28;20448;-81
2023/06/14 11:57:24;;;;;;;68.73;3.10;;;27.20;1.00;;;;;;5071718;28;20920;-81
2023/06/14 11:59:50;;;;;;;69.10;3.07;;;27.20;1.00;;;;;;5071434;28;20429;-81
2023/06/14 12:02:16;;;;;;;69.00;2.83;;;27.40;1.00;;;;;;5071116;28;20399;-81
2023/06/14 12:04:48;;;;;;;70.57;3.17;;;28.00;1.00;;;;;;5090094;28;20555;-81
2023/06/14 12:07:17;;;;;;;69.90;2.80;;;28.60;1.00;;;;;;5089754;28;20428;-81
2023/06/14 12:09:58;;;;;;;74.13;3.10;;;28.80;1.00;;;;;;5089594;28;20482;-81
2023/06/14 12:12:29;;;;;;;68.30;3.03;;;29.00;1.00;;;;;;5072147;28;20406;-81
2023/06/14 12:14:56;;;;;;;69.20;3.37;;;29.20;1.00;;;;;;5089758;28;20390;-81
2023/06/14 12:17:22;;;;;;;69.37;3.83;;;29.40;1.00;;;;;;5071543;28;20988;-81
2023/06/14 12:19:49;;;;;;;69.47;3.60;;;29.40;1.00;;;;;;5072155;28;20774;-81
2023/06/14 12:22:16;;;;;;;68.30;2.87;;;28.90;1.00;;;;;;5088533;28;20398;-81
2023/06/14 12:24:45;;;;;;;68.57;3.13;;;28.40;1.00;;;;;;5088669;28;20462;-80
2023/06/14 12:27:15;;;;;;;67.50;2.40;;;28.10;1.00;;;;;;5088282;28;20433;-80
2023/06/14 12:29:45;;;;;;;68.90;3.20;;;27.80;1.00;;;;;;5070030;28;20410;-81
2023/06/14 12:32:11;;;;;;;68.57;2.90;;;28.20;1.00;;;;;;5089107;28;20411;-80
2023/06/14 12:34:37;;;;;;;68.60;3.07;;;28.70;1.00;;;;;;5087696;28;20394;-81
2023/06/14 12:37:06;;;;;;;69.47;2.97;;;28.70;1.00;;;;;;5069498;28;20457;-81
2023/06/14 12:39:32;;;;;;;68.20;2.90;;;28.50;1.00;;;;;;5071033;28;20406;-81
2023/06/14 12:42:03;;;;;;;69.83;2.80;;;28.20;1.00;;;;;;5071106;28;20403;-80
2023/06/14 12:44:29;;;;;;;69.40;2.90;;;28.70;1.00;;;;;;5087195;28;20402;-80
2023/06/14 12:46:55;;;;;;;69.17;4.10;;;29.10;1.00;;;;;;5069889;28;20484;-81
2023/06/14 12:49:21;;;;;;;69.40;3.80;;;29.30;1.00;;;;;;5089067;28;20445;-81
2023/06/14 12:51:46;;;;;;;70.00;2.80;;;28.80;1.00;;;;;;5089251;28;20164;-80